sensor_id;sensor_type;location;lat;lon;timestamp;pressure;altitude;pressure_sealevel;temperature;humidity
70254;BME280;57649;42.968;1.608;2022-09-09T00:04:33;97290.41;;;16.92;75.16
70254;BME280;57649;42.968;1.608;2022-09-09T00:12:55;97299.94;;;16.81;76.02
70254;BME280;57649;42.968;1.608;2022-09-09T00:15:33;97289.16;;;16.74;76.42
70254;BME280;57649;42.968;1.608;2022-09-09T01:07:16;97298.75;;;16.44;76.26
70254;BME280;57649;42.968;1.608;2022-09-09T01:10:03;97298.75;;;16.50;75.87
70254;BME280;57649;42.968;1.608;2022-09-09T01:28:04;97284.19;;;16.05;77.38
70254;BME280;57649;42.968;1.608;2022-09-09T01:53:52;97335.28;;;16.26;77.42
70254;BME280;57649;42.968;1.608;2022-09-09T02:27:47;97307.47;;;16.39;76.44
70254;BME280;57649;42.968;1.608;2022-09-09T02:30:15;97320.16;;;16.45;76.75
70254;BME280;57649;42.968;1.608;2022-09-09T02:32:42;97323.28;;;16.49;76.84
70254;BME280;57649;42.968;1.608;2022-09-09T02:35:12;97303.75;;;16.47;76.45
70254;BME280;57649;42.968;1.608;2022-09-09T02:42:49;97324.72;;;16.31;76.92
70254;BME280;57649;42.968;1.608;2022-09-09T02:45:25;97319.94;;;16.40;76.24
70254;BME280;57649;42.968;1.608;2022-09-09T03:08:34;97316.19;;;16.34;76.09
70254;BME280;57649;42.968;1.608;2022-09-09T03:11:00;97309.97;;;16.41;75.71
70254;BME280;57649;42.968;1.608;2022-09-09T03:13:26;97322.25;;;16.43;75.93
70254;BME280;57649;42.968;1.608;2022-09-09T03:15:52;97321.81;;;16.33;76.17
70254;BME280;57649;42.968;1.608;2022-09-09T03:18:17;97332.41;;;16.54;75.85
70254;BME280;57649;42.968;1.608;2022-09-09T03:23:18;97327.63;;;16.50;75.60
70254;BME280;57649;42.968;1.608;2022-09-09T03:28:19;97331.56;;;16.61;74.89
70254;BME280;57649;42.968;1.608;2022-09-09T03:30:45;97335.09;;;16.68;74.33
70254;BME280;57649;42.968;1.608;2022-09-09T03:33:11;97333.47;;;16.67;74.92
70254;BME280;57649;42.968;1.608;2022-09-09T03:35:37;97333.47;;;16.67;74.72
70254;BME280;57649;42.968;1.608;2022-09-09T03:38:04;97332.00;;;16.64;74.92
70254;BME280;57649;42.968;1.608;2022-09-09T03:45:39;97338.66;;;16.62;74.44
70254;BME280;57649;42.968;1.608;2022-09-09T03:50:45;97336.34;;;16.52;74.59
70254;BME280;57649;42.968;1.608;2022-09-09T03:53:10;97332.63;;;16.60;74.40
70254;BME280;57649;42.968;1.608;2022-09-09T03:55:36;97336.56;;;16.57;74.50
70254;BME280;57649;42.968;1.608;2022-09-09T04:00:37;97343.22;;;16.68;74.60
70254;BME280;57649;42.968;1.608;2022-09-09T04:03:09;97332.00;;;16.71;74.47
70254;BME280;57649;42.968;1.608;2022-09-09T04:05:34;97335.94;;;16.68;74.44
70254;BME280;57649;42.968;1.608;2022-09-09T04:08:00;97332.22;;;16.69;74.27
70254;BME280;57649;42.968;1.608;2022-09-09T04:12:59;97308.28;;;16.80;73.97
70254;BME280;57649;42.968;1.608;2022-09-09T04:15:25;97321.19;;;16.91;74.29
70254;BME280;57649;42.968;1.608;2022-09-09T04:17:50;97313.28;;;16.83;74.29
70254;BME280;57649;42.968;1.608;2022-09-09T04:20:16;97319.53;;;16.77;74.54
70254;BME280;57649;42.968;1.608;2022-09-09T04:22:41;97331.19;;;16.84;74.81
70254;BME280;57649;42.968;1.608;2022-09-09T04:30:27;97344.88;;;16.96;74.36
70254;BME280;57649;42.968;1.608;2022-09-09T04:32:53;97336.38;;;16.92;73.89
70254;BME280;57649;42.968;1.608;2022-09-09T04:35:19;97329.53;;;16.89;73.88
70254;BME280;57649;42.968;1.608;2022-09-09T04:37:45;97344.28;;;17.00;73.76
70254;BME280;57649;42.968;1.608;2022-09-09T04:40:11;97337.22;;;16.86;73.85
70254;BME280;57649;42.968;1.608;2022-09-09T04:42:36;97352.38;;;17.00;73.68
70254;BME280;57649;42.968;1.608;2022-09-09T04:45:02;97348.25;;;16.91;74.01
70254;BME280;57649;42.968;1.608;2022-09-09T04:47:28;97356.72;;;17.01;73.59
70254;BME280;57649;42.968;1.608;2022-09-09T04:49:53;97361.13;;;17.09;73.41
70254;BME280;57649;42.968;1.608;2022-09-09T04:52:20;97347.78;;;16.94;73.50
70254;BME280;57649;42.968;1.608;2022-09-09T04:54:46;97346.78;;;16.95;73.54
70254;BME280;57649;42.968;1.608;2022-09-09T04:57:12;97349.03;;;17.11;72.80
70254;BME280;57649;42.968;1.608;2022-09-09T04:59:40;97357.56;;;17.08;72.98
70254;BME280;57649;42.968;1.608;2022-09-09T05:02:06;97374.63;;;17.09;72.97
70254;BME280;57649;42.968;1.608;2022-09-09T05:04:31;97383.56;;;17.09;72.97
70254;BME280;57649;42.968;1.608;2022-09-09T05:06:58;97378.59;;;16.93;73.23
70254;BME280;57649;42.968;1.608;2022-09-09T05:09:24;97378.78;;;16.85;73.54
70254;BME280;57649;42.968;1.608;2022-09-09T05:14:21;97366.09;;;16.79;73.98
70254;BME280;57649;42.968;1.608;2022-09-09T05:16:47;97375.88;;;16.86;74.16
70254;BME280;57649;42.968;1.608;2022-09-09T05:19:15;97370.06;;;16.96;73.70
70254;BME280;57649;42.968;1.608;2022-09-09T05:21:41;97389.19;;;17.01;73.94
70254;BME280;57649;42.968;1.608;2022-09-09T05:24:06;97384.00;;;16.93;74.36
70254;BME280;57649;42.968;1.608;2022-09-09T05:26:32;97386.91;;;17.05;73.95
70254;BME280;57649;42.968;1.608;2022-09-09T05:28:58;97386.47;;;17.01;74.11
70254;BME280;57649;42.968;1.608;2022-09-09T05:31:25;97389.81;;;17.10;73.84
70254;BME280;57649;42.968;1.608;2022-09-09T05:33:53;97385.63;;;17.21;73.14
70254;BME280;57649;42.968;1.608;2022-09-09T05:36:20;97392.69;;;17.35;72.87
70254;BME280;57649;42.968;1.608;2022-09-09T05:38:47;97394.38;;;17.29;72.85
70254;BME280;57649;42.968;1.608;2022-09-09T05:41:13;97403.53;;;17.08;73.86
70254;BME280;57649;42.968;1.608;2022-09-09T05:43:43;97392.72;;;17.08;73.98
70254;BME280;57649;42.968;1.608;2022-09-09T05:46:17;97386.50;;;17.15;73.63
70254;BME280;57649;42.968;1.608;2022-09-09T05:48:45;97392.31;;;17.18;73.65
70254;BME280;57649;42.968;1.608;2022-09-09T05:51:18;97397.69;;;17.38;72.67
70254;BME280;57649;42.968;1.608;2022-09-09T05:53:44;97392.25;;;17.45;72.52
70254;BME280;57649;42.968;1.608;2022-09-09T05:56:15;97406.63;;;17.32;73.06
70254;BME280;57649;42.968;1.608;2022-09-09T05:58:41;97403.72;;;17.40;72.97
70254;BME280;57649;42.968;1.608;2022-09-09T06:01:10;97407.19;;;17.54;72.64
70254;BME280;57649;42.968;1.608;2022-09-09T06:03:37;97412.59;;;17.61;72.20
70254;BME280;57649;42.968;1.608;2022-09-09T06:06:05;97408.03;;;17.55;72.40
70254;BME280;57649;42.968;1.608;2022-09-09T06:08:36;97407.84;;;17.49;72.72
70254;BME280;57649;42.968;1.608;2022-09-09T06:11:08;97410.56;;;17.43;72.63
70254;BME280;57649;42.968;1.608;2022-09-09T06:13:34;97407.69;;;17.18;72.68
70254;BME280;57649;42.968;1.608;2022-09-09T06:16:02;97408.31;;;17.33;72.59
70254;BME280;57649;42.968;1.608;2022-09-09T06:18:28;97413.06;;;17.44;72.66
70254;BME280;57649;42.968;1.608;2022-09-09T06:21:01;97402.44;;;17.43;72.58
70254;BME280;57649;42.968;1.608;2022-09-09T06:23:34;97419.69;;;17.55;72.51
70254;BME280;57649;42.968;1.608;2022-09-09T06:26:05;97413.00;;;17.64;72.28
70254;BME280;57649;42.968;1.608;2022-09-09T06:28:32;97419.66;;;17.68;72.12
70254;BME280;57649;42.968;1.608;2022-09-09T06:30:59;97422.34;;;17.75;71.74
70254;BME280;57649;42.968;1.608;2022-09-09T06:33:25;97422.97;;;17.77;71.28
70254;BME280;57649;42.968;1.608;2022-09-09T06:35:51;97430.44;;;17.82;71.08
70254;BME280;57649;42.968;1.608;2022-09-09T06:38:18;97432.13;;;17.83;71.16
70254;BME280;57649;42.968;1.608;2022-09-09T06:40:51;97430.47;;;17.75;71.30
70254;BME280;57649;42.968;1.608;2022-09-09T06:43:16;97429.88;;;17.73;71.27
70254;BME280;57649;42.968;1.608;2022-09-09T06:45:42;97434.81;;;17.83;71.13
70254;BME280;57649;42.968;1.608;2022-09-09T06:48:08;97423.16;;;17.82;71.17
70254;BME280;57649;42.968;1.608;2022-09-09T06:50:34;97430.84;;;17.99;70.37
70254;BME280;57649;42.968;1.608;2022-09-09T06:52:59;97432.06;;;18.03;70.14
70254;BME280;57649;42.968;1.608;2022-09-09T06:55:25;97421.47;;;17.95;70.18
70254;BME280;57649;42.968;1.608;2022-09-09T06:58:00;97432.25;;;18.08;69.60
70254;BME280;57649;42.968;1.608;2022-09-09T07:00:25;97437.41;;;18.16;69.78
70254;BME280;57649;42.968;1.608;2022-09-09T07:02:51;97440.31;;;18.21;69.76
70254;BME280;57649;42.968;1.608;2022-09-09T07:05:16;97430.34;;;18.15;70.08
70254;BME280;57649;42.968;1.608;2022-09-09T07:07:41;97433.84;;;18.22;69.60
70254;BME280;57649;42.968;1.608;2022-09-09T07:10:07;97438.28;;;18.10;70.20
70254;BME280;57649;42.968;1.608;2022-09-09T07:12:33;97430.97;;;18.17;70.18
70254;BME280;57649;42.968;1.608;2022-09-09T07:14:58;97421.13;;;18.23;69.80
70254;BME280;57649;42.968;1.608;2022-09-09T07:17:23;97424.66;;;18.23;70.38
70254;BME280;57649;42.968;1.608;2022-09-09T07:19:49;97426.06;;;18.33;70.04
70254;BME280;57649;42.968;1.608;2022-09-09T07:22:14;97423.13;;;18.41;69.54
70254;BME280;57649;42.968;1.608;2022-09-09T07:24:41;97426.06;;;18.39;69.56
70254;BME280;57649;42.968;1.608;2022-09-09T07:27:06;97418.88;;;18.52;69.34
70254;BME280;57649;42.968;1.608;2022-09-09T07:29:32;97424.59;;;18.37;69.86
70254;BME280;57649;42.968;1.608;2022-09-09T07:31:57;97421.34;;;18.53;67.73
70254;BME280;57649;42.968;1.608;2022-09-09T07:34:24;97418.00;;;18.58;68.63
70254;BME280;57649;42.968;1.608;2022-09-09T07:36:49;97411.31;;;18.60;68.40
70254;BME280;57649;42.968;1.608;2022-09-09T07:39:14;97408.50;;;18.74;68.07
70254;BME280;57649;42.968;1.608;2022-09-09T07:41:43;97399.72;;;18.78;67.46
70254;BME280;57649;42.968;1.608;2022-09-09T07:44:18;97400.72;;;18.84;67.47
70254;BME280;57649;42.968;1.608;2022-09-09T07:46:44;97401.59;;;18.46;67.90
70254;BME280;57649;42.968;1.608;2022-09-09T07:49:10;97404.91;;;18.48;68.23
70254;BME280;57649;42.968;1.608;2022-09-09T07:51:42;97399.78;;;18.40;68.83
70254;BME280;57649;42.968;1.608;2022-09-09T07:54:10;97393.94;;;18.43;69.15
70254;BME280;57649;42.968;1.608;2022-09-09T07:56:37;97394.59;;;18.63;68.67
70254;BME280;57649;42.968;1.608;2022-09-09T07:59:03;97390.00;;;18.64;68.36
70254;BME280;57649;42.968;1.608;2022-09-09T08:01:32;97381.84;;;18.71;67.63
70254;BME280;57649;42.968;1.608;2022-09-09T08:04:00;97387.81;;;18.79;67.29
70254;BME280;57649;42.968;1.608;2022-09-09T08:06:28;97384.81;;;18.94;67.07
70254;BME280;57649;42.968;1.608;2022-09-09T08:08:54;97386.06;;;18.92;67.00
70254;BME280;57649;42.968;1.608;2022-09-09T08:11:22;97392.34;;;18.92;66.80
70254;BME280;57649;42.968;1.608;2022-09-09T08:13:48;97392.03;;;19.00;66.25
70254;BME280;57649;42.968;1.608;2022-09-09T08:16:17;97389.56;;;18.99;66.19
70254;BME280;57649;42.968;1.608;2022-09-09T08:18:43;97391.91;;;19.14;65.73
70254;BME280;57649;42.968;1.608;2022-09-09T08:23:40;97380.16;;;19.82;63.99
70254;BME280;57649;42.968;1.608;2022-09-09T08:26:11;97379.09;;;20.44;62.27
70254;BME280;57649;42.968;1.608;2022-09-09T08:28:38;97383.63;;;21.04;60.05
70254;BME280;57649;42.968;1.608;2022-09-09T08:31:07;97396.78;;;21.30;59.77
70254;BME280;57649;42.968;1.608;2022-09-09T08:33:33;97384.09;;;21.71;57.98
70254;BME280;57649;42.968;1.608;2022-09-09T08:35:59;97393.00;;;22.07;57.31
70254;BME280;57649;42.968;1.608;2022-09-09T08:38:24;97395.28;;;21.87;57.74
70254;BME280;57649;42.968;1.608;2022-09-09T08:40:52;97396.22;;;22.04;57.22
70254;BME280;57649;42.968;1.608;2022-09-09T08:43:24;97391.72;;;22.39;56.32
70254;BME280;57649;42.968;1.608;2022-09-09T08:46:17;97396.06;;;22.52;55.97
70254;BME280;57649;42.968;1.608;2022-09-09T08:48:58;97405.28;;;22.51;56.02
70254;BME280;57649;42.968;1.608;2022-09-09T08:51:29;97407.41;;;22.20;56.59
70254;BME280;57649;42.968;1.608;2022-09-09T08:53:58;97401.47;;;22.35;56.01
70254;BME280;57649;42.968;1.608;2022-09-09T08:56:26;97402.88;;;22.66;55.28
70254;BME280;57649;42.968;1.608;2022-09-09T08:58:54;97415.19;;;22.85;55.10
70254;BME280;57649;42.968;1.608;2022-09-09T09:05:28;97422.28;;;23.15;53.90
70254;BME280;57649;42.968;1.608;2022-09-09T09:12:46;97437.75;;;22.64;55.90
70254;BME280;57649;42.968;1.608;2022-09-09T09:15:36;97449.03;;;22.27;56.66
70254;BME280;57649;42.968;1.608;2022-09-09T09:18:03;97442.47;;;22.68;55.74
70254;BME280;57649;42.968;1.608;2022-09-09T09:20:54;97448.13;;;22.50;56.02
70254;BME280;57649;42.968;1.608;2022-09-09T09:23:28;97458.84;;;22.85;55.16
70254;BME280;57649;42.968;1.608;2022-09-09T09:25:59;97450.72;;;22.57;55.73
70254;BME280;57649;42.968;1.608;2022-09-09T09:28:29;97460.03;;;22.32;55.87
70254;BME280;57649;42.968;1.608;2022-09-09T09:31:06;97455.31;;;22.16;55.59
70254;BME280;57649;42.968;1.608;2022-09-09T09:33:42;97466.34;;;22.21;56.46
70254;BME280;57649;42.968;1.608;2022-09-09T09:36:12;97468.47;;;22.07;56.58
70254;BME280;57649;42.968;1.608;2022-09-09T09:38:55;97466.81;;;22.18;56.55
70254;BME280;57649;42.968;1.608;2022-09-09T09:41:40;97471.16;;;22.42;56.34
70254;BME280;57649;42.968;1.608;2022-09-09T09:44:26;97469.41;;;22.13;57.53
70254;BME280;57649;42.968;1.608;2022-09-09T09:46:52;97477.03;;;21.87;58.10
70254;BME280;57649;42.968;1.608;2022-09-09T09:49:18;97477.19;;;21.80;58.74
70254;BME280;57649;42.968;1.608;2022-09-09T09:51:43;97488.41;;;21.96;58.25
70254;BME280;57649;42.968;1.608;2022-09-09T09:54:28;97496.84;;;21.82;58.99
70254;BME280;57649;42.968;1.608;2022-09-09T09:56:54;97494.00;;;21.77;58.90
70254;BME280;57649;42.968;1.608;2022-09-09T10:01:54;97491.53;;;21.10;60.86
70254;BME280;57649;42.968;1.608;2022-09-09T10:04:31;97494.22;;;21.28;61.16
70254;BME280;57649;42.968;1.608;2022-09-09T10:07:10;97490.66;;;21.40;60.78
70254;BME280;57649;42.968;1.608;2022-09-09T10:09:36;97497.97;;;21.27;60.74
70254;BME280;57649;42.968;1.608;2022-09-09T10:17:58;97504.13;;;21.23;60.83
70254;BME280;57649;42.968;1.608;2022-09-09T10:20:32;97502.75;;;21.44;60.81
70254;BME280;57649;42.968;1.608;2022-09-09T10:23:20;97501.16;;;21.12;61.14
70254;BME280;57649;42.968;1.608;2022-09-09T10:26:10;97507.75;;;21.59;60.48
70254;BME280;57649;42.968;1.608;2022-09-09T10:31:51;97498.22;;;22.08;58.73
70254;BME280;57649;42.968;1.608;2022-09-09T10:36:49;97504.78;;;21.84;59.27
70254;BME280;57649;42.968;1.608;2022-09-09T10:39:33;97492.47;;;21.69;59.88
70254;BME280;57649;42.968;1.608;2022-09-09T10:42:09;97493.75;;;21.90;59.67
70254;BME280;57649;42.968;1.608;2022-09-09T10:44:59;97500.31;;;21.54;60.18
70254;BME280;57649;42.968;1.608;2022-09-09T10:48:09;97505.25;;;21.57;60.28
70254;BME280;57649;42.968;1.608;2022-09-09T10:50:56;97501.94;;;21.55;60.17
70254;BME280;57649;42.968;1.608;2022-09-09T10:56:01;97505.38;;;21.62;60.09
70254;BME280;57649;42.968;1.608;2022-09-09T10:58:40;97502.53;;;21.57;59.65
70254;BME280;57649;42.968;1.608;2022-09-09T11:03:47;97504.31;;;21.51;60.74
70254;BME280;57649;42.968;1.608;2022-09-09T11:06:19;97511.72;;;21.32;60.63
70254;BME280;57649;42.968;1.608;2022-09-09T11:08:44;97507.47;;;21.37;62.11
70254;BME280;57649;42.968;1.608;2022-09-09T11:11:21;97526.63;;;21.30;62.62
70254;BME280;57649;42.968;1.608;2022-09-09T11:19:28;97535.88;;;19.26;72.00
70254;BME280;57649;42.968;1.608;2022-09-09T11:21:57;97535.38;;;19.35;72.28
70254;BME280;57649;42.968;1.608;2022-09-09T11:24:47;97534.91;;;19.13;72.78
70254;BME280;57649;42.968;1.608;2022-09-09T11:27:20;97542.31;;;18.99;72.46
70254;BME280;57649;42.968;1.608;2022-09-09T11:30:16;97540.47;;;18.93;72.26
70254;BME280;57649;42.968;1.608;2022-09-09T11:41:17;97562.69;;;18.70;75.93
70254;BME280;57649;42.968;1.608;2022-09-09T11:43:49;97560.81;;;18.71;75.60
70254;BME280;57649;42.968;1.608;2022-09-09T11:46:21;97564.31;;;18.78;76.12
70254;BME280;57649;42.968;1.608;2022-09-09T11:48:59;97562.03;;;18.75;77.30
70254;BME280;57649;42.968;1.608;2022-09-09T11:51:30;97563.59;;;18.57;77.65
70254;BME280;57649;42.968;1.608;2022-09-09T11:54:01;97578.59;;;18.53;78.91
70254;BME280;57649;42.968;1.608;2022-09-09T12:04:09;97593.31;;;17.65;89.53
70254;BME280;57649;42.968;1.608;2022-09-09T12:06:48;97586.06;;;17.46;89.02
70254;BME280;57649;42.968;1.608;2022-09-09T12:11:50;97606.22;;;17.17;90.95
70254;BME280;57649;42.968;1.608;2022-09-09T12:14:37;97597.84;;;17.05;94.16
70254;BME280;57649;42.968;1.608;2022-09-09T12:19:38;97603.22;;;16.91;96.47
70254;BME280;57649;42.968;1.608;2022-09-09T12:22:15;97622.69;;;16.73;96.39
70254;BME280;57649;42.968;1.608;2022-09-09T12:25:08;97621.38;;;16.63;97.38
70254;BME280;57649;42.968;1.608;2022-09-09T12:30:39;97630.59;;;16.33;98.18
70254;BME280;57649;42.968;1.608;2022-09-09T12:33:11;97623.13;;;16.35;98.61
70254;BME280;57649;42.968;1.608;2022-09-09T12:35:38;97620.66;;;16.34;99.98
70254;BME280;57649;42.968;1.608;2022-09-09T12:38:05;97628.50;;;16.29;99.19
70254;BME280;57649;42.968;1.608;2022-09-09T12:40:35;97635.69;;;16.15;100.00
70254;BME280;57649;42.968;1.608;2022-09-09T12:43:22;97633.41;;;16.12;100.00
70254;BME280;57649;42.968;1.608;2022-09-09T12:45:49;97640.50;;;16.20;100.00
70254;BME280;57649;42.968;1.608;2022-09-09T12:48:18;97643.91;;;16.35;100.00
70254;BME280;57649;42.968;1.608;2022-09-09T12:50:48;97646.34;;;16.23;100.00
70254;BME280;57649;42.968;1.608;2022-09-09T12:55:56;97650.69;;;16.24;100.00
70254;BME280;57649;42.968;1.608;2022-09-09T12:58:22;97663.63;;;16.29;99.88
70254;BME280;57649;42.968;1.608;2022-09-09T13:00:52;97651.00;;;16.43;100.00
70254;BME280;57649;42.968;1.608;2022-09-09T13:03:21;97660.88;;;16.57;100.00
70254;BME280;57649;42.968;1.608;2022-09-09T13:05:48;97663.94;;;16.47;100.00
70254;BME280;57649;42.968;1.608;2022-09-09T13:08:15;97668.34;;;16.55;100.00
70254;BME280;57649;42.968;1.608;2022-09-09T13:11:07;97660.59;;;16.45;100.00
70254;BME280;57649;42.968;1.608;2022-09-09T13:13:40;97660.94;;;16.35;100.00
70254;BME280;57649;42.968;1.608;2022-09-09T13:16:22;97659.94;;;16.36;100.00
70254;BME280;57649;42.968;1.608;2022-09-09T13:18:50;97664.75;;;16.41;100.00
70254;BME280;57649;42.968;1.608;2022-09-09T13:21:17;97656.28;;;16.51;100.00
70254;BME280;57649;42.968;1.608;2022-09-09T13:23:48;97647.34;;;16.57;100.00
70254;BME280;57649;42.968;1.608;2022-09-09T13:26:23;97649.19;;;16.50;100.00
70254;BME280;57649;42.968;1.608;2022-09-09T13:28:51;97649.59;;;16.47;96.53
70254;BME280;57649;42.968;1.608;2022-09-09T13:31:29;97652.41;;;16.73;94.66
70254;BME280;57649;42.968;1.608;2022-09-09T13:33:55;97642.19;;;16.62;92.97
70254;BME280;57649;42.968;1.608;2022-09-09T13:36:32;97644.41;;;16.52;91.78
70254;BME280;57649;42.968;1.608;2022-09-09T13:38:59;97649.44;;;16.55;92.31
70254;BME280;57649;42.968;1.608;2022-09-09T13:41:32;97636.09;;;16.47;91.99
70254;BME280;57649;42.968;1.608;2022-09-09T13:43:58;97630.06;;;16.51;94.08
70254;BME280;57649;42.968;1.608;2022-09-09T13:51:45;97635.53;;;16.65;94.11
70254;BME280;57649;42.968;1.608;2022-09-09T13:54:13;97637.66;;;16.69;97.78
70254;BME280;57649;42.968;1.608;2022-09-09T13:56:40;97630.59;;;16.75;96.19
70254;BME280;57649;42.968;1.608;2022-09-09T13:59:10;97636.09;;;16.95;98.30
70254;BME280;57649;42.968;1.608;2022-09-09T14:01:36;97626.53;;;16.99;97.08
70254;BME280;57649;42.968;1.608;2022-09-09T14:04:03;97630.47;;;16.83;93.52
70254;BME280;57649;42.968;1.608;2022-09-09T14:06:29;97623.19;;;16.90;92.74
70254;BME280;57649;42.968;1.608;2022-09-09T14:08:54;97612.38;;;16.84;90.64
70254;BME280;57649;42.968;1.608;2022-09-09T14:11:20;97621.09;;;16.86;88.79
70254;BME280;57649;42.968;1.608;2022-09-09T14:13:47;97616.53;;;16.86;87.30
70254;BME280;57649;42.968;1.608;2022-09-09T14:16:12;97625.53;;;17.13;87.56
70254;BME280;57649;42.968;1.608;2022-09-09T14:18:38;97614.47;;;16.95;88.54
70254;BME280;57649;42.968;1.608;2022-09-09T14:21:04;97619.19;;;16.80;93.12
70254;BME280;57649;42.968;1.608;2022-09-09T14:23:30;97621.97;;;16.93;90.41
70254;BME280;57649;42.968;1.608;2022-09-09T14:25:55;97612.88;;;17.21;89.62
70254;BME280;57649;42.968;1.608;2022-09-09T14:28:21;97612.47;;;17.30;89.77
70254;BME280;57649;42.968;1.608;2022-09-09T14:30:47;97612.47;;;17.37;91.22
70254;BME280;57649;42.968;1.608;2022-09-09T14:33:14;97610.19;;;17.34;87.70
70254;BME280;57649;42.968;1.608;2022-09-09T14:35:40;97601.66;;;17.24;89.32
70254;BME280;57649;42.968;1.608;2022-09-09T14:38:07;97600.81;;;17.17;92.76
70254;BME280;57649;42.968;1.608;2022-09-09T14:40:35;97598.09;;;17.30;92.34
70254;BME280;57649;42.968;1.608;2022-09-09T14:43:00;97595.84;;;17.40;92.36
70254;BME280;57649;42.968;1.608;2022-09-09T14:45:26;97589.56;;;17.40;92.88
70254;BME280;57649;42.968;1.608;2022-09-09T14:47:51;97589.56;;;17.20;91.64
70254;BME280;57649;42.968;1.608;2022-09-09T14:50:18;97588.91;;;17.04;88.88
70254;BME280;57649;42.968;1.608;2022-09-09T14:52:44;97577.47;;;17.16;90.02
70254;BME280;57649;42.968;1.608;2022-09-09T14:55:10;97587.44;;;17.08;92.16
70254;BME280;57649;42.968;1.608;2022-09-09T14:57:36;97583.31;;;17.06;91.78
70254;BME280;57649;42.968;1.608;2022-09-09T15:00:06;97582.47;;;17.12;92.49
70254;BME280;57649;42.968;1.608;2022-09-09T15:02:32;97592.69;;;17.30;92.81
70254;BME280;57649;42.968;1.608;2022-09-09T15:04:58;97588.34;;;17.42;94.22
70254;BME280;57649;42.968;1.608;2022-09-09T15:07:24;97578.56;;;17.41;92.18
70254;BME280;57649;42.968;1.608;2022-09-09T15:09:50;97579.16;;;17.43;92.37
70254;BME280;57649;42.968;1.608;2022-09-09T15:12:15;97587.94;;;17.59;89.68
70254;BME280;57649;42.968;1.608;2022-09-09T15:14:44;97587.50;;;17.68;90.41
70254;BME280;57649;42.968;1.608;2022-09-09T15:17:09;97578.34;;;17.63;91.15
70254;BME280;57649;42.968;1.608;2022-09-09T15:19:35;97576.06;;;17.60;87.98
70254;BME280;57649;42.968;1.608;2022-09-09T15:22:02;97576.69;;;17.48;89.53
70254;BME280;57649;42.968;1.608;2022-09-09T15:24:27;97570.25;;;17.49;89.38
70254;BME280;57649;42.968;1.608;2022-09-09T15:26:53;97574.59;;;17.50;83.04
70254;BME280;57649;42.968;1.608;2022-09-09T15:29:19;97570.03;;;17.51;87.69
70254;BME280;57649;42.968;1.608;2022-09-09T15:31:45;97565.81;;;17.82;88.22
70254;BME280;57649;42.968;1.608;2022-09-09T15:34:11;97562.75;;;17.92;91.10
70254;BME280;57649;42.968;1.608;2022-09-09T15:36:43;97571.25;;;18.02;91.50
70254;BME280;57649;42.968;1.608;2022-09-09T15:39:12;97564.56;;;18.11;90.53
70254;BME280;57649;42.968;1.608;2022-09-09T15:41:43;97564.78;;;18.03;87.89
70254;BME280;57649;42.968;1.608;2022-09-09T15:44:11;97569.97;;;18.11;88.92
70254;BME280;57649;42.968;1.608;2022-09-09T15:46:50;97558.16;;;17.99;89.39
70254;BME280;57649;42.968;1.608;2022-09-09T15:49:21;97566.69;;;17.89;88.43
70254;BME280;57649;42.968;1.608;2022-09-09T15:51:57;97562.13;;;17.89;94.06
70254;BME280;57649;42.968;1.608;2022-09-09T15:54:24;97574.19;;;17.94;90.80
70254;BME280;57649;42.968;1.608;2022-09-09T15:56:52;97566.88;;;17.87;88.76
70254;BME280;57649;42.968;1.608;2022-09-09T15:59:19;97564.19;;;17.87;90.54
70254;BME280;57649;42.968;1.608;2022-09-09T16:01:45;97554.16;;;17.95;91.34
70254;BME280;57649;42.968;1.608;2022-09-09T16:04:10;97552.47;;;18.07;87.96
70254;BME280;57649;42.968;1.608;2022-09-09T16:06:36;97553.28;;;18.21;89.62
70254;BME280;57649;42.968;1.608;2022-09-09T16:09:04;97549.50;;;18.28;90.36
70254;BME280;57649;42.968;1.608;2022-09-09T16:11:35;97551.69;;;18.52;90.17
70254;BME280;57649;42.968;1.608;2022-09-09T16:14:01;97553.38;;;18.46;88.70
70254;BME280;57649;42.968;1.608;2022-09-09T16:16:29;97543.84;;;18.37;88.99
70254;BME280;57649;42.968;1.608;2022-09-09T16:18:59;97555.28;;;18.39;90.64
70254;BME280;57649;42.968;1.608;2022-09-09T16:23:58;97547.75;;;18.47;85.58
70254;BME280;57649;42.968;1.608;2022-09-09T16:26:28;97540.22;;;18.56;86.23
70254;BME280;57649;42.968;1.608;2022-09-09T16:28:55;97550.69;;;18.46;87.54
70254;BME280;57649;42.968;1.608;2022-09-09T16:31:22;97543.22;;;18.41;89.21
70254;BME280;57649;42.968;1.608;2022-09-09T16:33:49;97543.00;;;18.36;88.39
70254;BME280;57649;42.968;1.608;2022-09-09T16:36:18;97549.03;;;18.38;90.19
70254;BME280;57649;42.968;1.608;2022-09-09T16:38:44;97544.50;;;18.32;89.84
70254;BME280;57649;42.968;1.608;2022-09-09T16:41:11;97547.00;;;18.27;90.01
70254;BME280;57649;42.968;1.608;2022-09-09T16:43:37;97550.34;;;18.29;89.92
70254;BME280;57649;42.968;1.608;2022-09-09T16:46:12;97551.75;;;18.38;89.74
70254;BME280;57649;42.968;1.608;2022-09-09T16:48:38;97551.53;;;18.40;89.81
70254;BME280;57649;42.968;1.608;2022-09-09T16:51:05;97542.00;;;18.31;89.46
70254;BME280;57649;42.968;1.608;2022-09-09T16:53:33;97544.50;;;18.25;91.44
70254;BME280;57649;42.968;1.608;2022-09-09T16:56:04;97538.25;;;18.32;90.53
70254;BME280;57649;42.968;1.608;2022-09-09T16:58:29;97534.91;;;18.30;90.81
70254;BME280;57649;42.968;1.608;2022-09-09T17:01:01;97543.22;;;18.41;89.59
70254;BME280;57649;42.968;1.608;2022-09-09T17:03:31;97541.13;;;18.37;89.46
70254;BME280;57649;42.968;1.608;2022-09-09T17:05:59;97549.91;;;18.32;87.05
70254;BME280;57649;42.968;1.608;2022-09-09T17:08:30;97542.00;;;18.31;86.38
70254;BME280;57649;42.968;1.608;2022-09-09T17:10:57;97540.31;;;18.36;88.32
70254;BME280;57649;42.968;1.608;2022-09-09T17:13:22;97538.28;;;18.18;88.20
70254;BME280;57649;42.968;1.608;2022-09-09T17:15:48;97540.16;;;18.11;87.03
70254;BME280;57649;42.968;1.608;2022-09-09T17:18:13;97542.19;;;18.36;89.57
70254;BME280;57649;42.968;1.608;2022-09-09T17:20:40;97539.28;;;18.37;88.46
70254;BME280;57649;42.968;1.608;2022-09-09T17:23:10;97539.03;;;18.39;88.21